Time;durP1;ratioP1;P1;durP2;ratioP2;P2;SDS_P1;SDS_P2;PMS_P1;PMS_P2;Temp;Humidity;BMP_temperature;BMP_pressure;BME280_temperature;BME280_humidity;BME280_pressure;Samples;Min_cycle;Max_cycle;Signal;HPM_P1;HPM_P2
2023/01/02 00:01:02;;;;;;;4.45;2.60;;;3.20;99.90;;;;;;4952562;28;20416;-62
2023/01/02 00:03:29;;;;;;;2.88;2.50;;;3.20;99.90;;;;;;4960243;28;20102;-62
2023/01/02 00:05:56;;;;;;;3.03;2.72;;;3.20;99.90;;;;;;4949012;28;20048;-67
2023/01/02 00:08:23;;;;;;;4.75;2.60;;;3.20;99.90;;;;;;4954227;28;20541;-62
2023/01/02 00:10:50;;;;;;;4.50;3.20;;;3.20;99.90;;;;;;4957184;28;20049;-62
2023/01/02 00:13:19;;;;;;;5.13;2.83;;;3.20;99.90;;;;;;4953195;28;20497;-62
2023/01/02 00:15:45;;;;;;;2.55;2.35;;;3.10;99.90;;;;;;4957026;28;20135;-63
2023/01/02 00:18:12;;;;;;;2.85;2.58;;;3.20;99.90;;;;;;4950719;28;20125;-63
2023/01/02 00:20:40;;;;;;;4.78;2.45;;;3.20;99.90;;;;;;4953352;28;20519;-64
2023/01/02 00:23:06;;;;;;;3.25;2.00;;;3.20;99.90;;;;;;4951203;28;20045;-62
2023/01/02 00:25:34;;;;;;;3.20;2.60;;;3.20;99.90;;;;;;4951047;28;20133;-62
2023/01/02 00:28:01;;;;;;;6.65;2.50;;;3.20;99.90;;;;;;4948405;28;20078;-63
2023/01/02 00:30:28;;;;;;;3.40;2.58;;;3.20;99.90;;;;;;4955099;28;20059;-63
2023/01/02 00:33:03;;;;;;;4.40;2.92;;;3.20;99.90;;;;;;4955379;28;20542;-63
2023/01/02 00:35:30;;;;;;;4.50;2.20;;;3.20;99.90;;;;;;4957975;28;20047;-62
2023/01/02 00:37:57;;;;;;;4.22;2.83;;;3.20;99.90;;;;;;4953931;28;20047;-62
2023/01/02 00:40:24;;;;;;;2.72;2.22;;;3.20;99.90;;;;;;4949753;28;20047;-64
2023/01/02 00:42:51;;;;;;;3.50;2.88;;;3.20;99.90;;;;;;4955272;28;20054;-63
2023/01/02 00:45:17;;;;;;;4.97;3.60;;;3.20;99.90;;;;;;4952776;28;20146;-63
2023/01/02 00:47:44;;;;;;;4.05;2.85;;;3.10;99.90;;;;;;4956566;28;20494;-62
2023/01/02 00:50:11;;;;;;;4.68;4.10;;;3.20;99.90;;;;;;4953769;28;20055;-62
2023/01/02 00:52:38;;;;;;;4.57;4.18;;;3.20;99.90;;;;;;4957090;28;20049;-62
2023/01/02 00:55:06;;;;;;;5.40;4.38;;;3.20;99.90;;;;;;4962545;28;20130;-63
2023/01/02 00:57:32;;;;;;;5.32;4.82;;;3.20;99.90;;;;;;4952923;28;20062;-62
2023/01/02 00:59:59;;;;;;;6.38;5.07;;;3.20;99.90;;;;;;4956924;28;20088;-63
2023/01/02 01:02:26;;;;;;;7.75;5.20;;;3.20;99.90;;;;;;4963856;28;20053;-62
2023/01/02 01:04:53;;;;;;;7.53;4.15;;;3.20;99.90;;;;;;4954435;28;20058;-65
2023/01/02 01:07:20;;;;;;;7.53;5.90;;;3.20;99.90;;;;;;4954990;28;20053;-63
2023/01/02 01:09:47;;;;;;;7.10;5.20;;;3.20;99.90;;;;;;4953847;28;20130;-63
2023/01/02 01:12:14;;;;;;;7.80;5.05;;;3.30;99.90;;;;;;4954298;28;20051;-62
2023/01/02 01:14:41;;;;;;;6.95;5.50;;;3.20;99.90;;;;;;4961319;28;20408;-63
2023/01/02 01:17:07;;;;;;;7.90;5.50;;;3.30;99.90;;;;;;4950495;28;20059;-63
2023/01/02 01:19:35;;;;;;;6.20;4.93;;;3.30;99.90;;;;;;4955420;28;20062;-62
2023/01/02 01:22:02;;;;;;;8.00;5.55;;;3.30;99.90;;;;;;4950695;28;20123;-63
2023/01/02 01:24:29;;;;;;;8.05;4.78;;;3.30;99.90;;;;;;4952503;28;20096;-62
2023/01/02 01:26:56;;;;;;;12.82;6.20;;;3.20;99.90;;;;;;4959340;28;20130;-64
2023/01/02 01:29:22;;;;;;;7.20;4.82;;;3.30;99.90;;;;;;4954388;28;20050;-66
2023/01/02 01:31:49;;;;;;;9.98;5.88;;;3.30;99.90;;;;;;4954518;28;20082;-62
2023/01/02 01:34:16;;;;;;;8.23;6.10;;;3.30;99.90;;;;;;4956402;28;20045;-62
2023/01/02 01:36:43;;;;;;;8.07;4.55;;;3.30;99.90;;;;;;4955061;28;20523;-63
2023/01/02 01:39:10;;;;;;;11.05;4.68;;;3.30;99.90;;;;;;4948636;28;20054;-63
2023/01/02 01:41:37;;;;;;;7.82;5.20;;;3.30;99.90;;;;;;4948312;28;20507;-63
2023/01/02 01:44:42;;;;;;;7.13;5.05;;;3.30;99.90;;;;;;4947992;28;20057;-63
2023/01/02 01:47:20;;;;;;;7.63;6.28;;;3.30;99.90;;;;;;4946817;28;20059;-62
2023/01/02 01:49:50;;;;;;;7.65;4.85;;;3.30;99.90;;;;;;4947738;28;20142;-63
2023/01/02 01:52:24;;;;;;;7.05;5.03;;;3.30;99.90;;;;;;4951075;28;20045;-63
2023/01/02 01:55:02;;;;;;;11.25;6.68;;;3.40;99.90;;;;;;4958057;28;20051;-64
2023/01/02 01:57:35;;;;;;;12.00;6.78;;;3.40;99.90;;;;;;4954740;28;20069;-63
2023/01/02 02:00:03;;;;;;;9.65;5.82;;;3.40;99.90;;;;;;4951833;28;20047;-63
2023/01/02 02:02:32;;;;;;;9.75;6.28;;;3.40;99.90;;;;;;4958630;28;20051;-65
2023/01/02 02:05:02;;;;;;;8.30;6.68;;;3.40;99.90;;;;;;4959921;28;20058;-63
2023/01/02 02:07:30;;;;;;;10.82;6.88;;;3.40;99.90;;;;;;4957932;28;20401;-62
2023/01/02 02:10:05;;;;;;;13.10;7.70;;;3.40;99.90;;;;;;4956205;28;20051;-66
2023/01/02 02:12:33;;;;;;;11.18;5.90;;;3.40;99.90;;;;;;4956986;28;20481;-63
2023/01/02 02:15:00;;;;;;;9.88;6.47;;;3.40;99.90;;;;;;4959420;28;20114;-62
2023/01/02 02:18:00;;;;;;;10.88;6.07;;;3.40;99.90;;;;;;4950286;28;20067;-64
2023/01/02 02:20:34;;;;;;;12.32;5.72;;;3.40;99.90;;;;;;4949026;28;20094;-63
2023/01/02 02:23:45;;;;;;;8.73;5.60;;;3.50;99.90;;;;;;4954221;28;20548;-63
2023/01/02 02:26:25;;;;;;;8.50;5.82;;;3.50;99.90;;;;;;4928943;28;20167;-62
2023/01/02 02:29:01;;;;;;;7.03;4.80;;;3.50;99.90;;;;;;4950570;28;20413;-66
2023/01/02 02:32:05;;;;;;;9.00;4.30;;;3.50;99.90;;;;;;4958038;28;20471;-66
2023/01/02 02:34:53;;;;;;;5.22;4.25;;;3.50;99.90;;;;;;4950515;28;20057;-62
2023/01/02 02:37:44;;;;;;;5.53;4.03;;;3.60;99.90;;;;;;4947964;28;20082;-63
2023/01/02 02:40:24;;;;;;;5.65;4.43;;;3.60;99.90;;;;;;4946725;28;20055;-63
2023/01/02 02:43:06;;;;;;;4.88;3.60;;;3.60;99.90;;;;;;4952795;28;20506;-62
2023/01/02 02:45:54;;;;;;;4.03;3.03;;;3.60;99.90;;;;;;4952683;28;20060;-63
2023/01/02 02:48:33;;;;;;;5.68;3.83;;;3.60;99.90;;;;;;4946493;28;20043;-63
2023/01/02 02:51:01;;;;;;;6.25;3.20;;;3.60;99.90;;;;;;4950096;28;20082;-63
2023/01/02 02:53:39;;;;;;;6.57;3.65;;;3.60;99.90;;;;;;4954341;28;20051;-62
2023/01/02 02:56:08;;;;;;;4.70;2.88;;;3.70;99.90;;;;;;4953253;28;20051;-63
2023/01/02 02:58:36;;;;;;;4.47;3.83;;;3.70;99.90;;;;;;4952252;28;20559;-62
2023/01/02 03:01:06;;;;;;;5.65;3.45;;;3.70;99.90;;;;;;4950639;28;20173;-62
2023/01/02 03:03:33;;;;;;;6.30;3.17;;;3.70;99.90;;;;;;4954105;28;20716;-67
2023/01/02 03:06:28;;;;;;;5.78;3.60;;;3.70;99.90;;;;;;4953514;28;20079;-62
2023/01/02 03:09:18;;;;;;;4.18;3.03;;;3.70;99.90;;;;;;4957046;28;20053;-64
2023/01/02 03:12:13;;;;;;;5.97;3.95;;;3.70;99.90;;;;;;4951778;28;20046;-63
2023/01/02 03:14:57;;;;;;;5.68;3.80;;;3.80;99.90;;;;;;4953762;28;20477;-63
2023/01/02 03:17:41;;;;;;;3.70;3.00;;;3.80;99.90;;;;;;4957954;28;20058;-63
2023/01/02 03:20:13;;;;;;;4.07;3.08;;;3.80;99.90;;;;;;4949739;28;20058;-63
2023/01/02 03:22:46;;;;;;;5.13;3.15;;;3.80;99.90;;;;;;4965762;28;20054;-62
2023/01/02 03:25:15;;;;;;;7.82;3.70;;;3.90;99.90;;;;;;4952577;28;20061;-63
2023/01/02 03:27:44;;;;;;;6.30;3.55;;;3.90;99.90;;;;;;4951540;28;20062;-64
2023/01/02 03:30:18;;;;;;;4.28;3.33;;;3.90;99.90;;;;;;4951407;28;20078;-62
2023/01/02 03:32:50;;;;;;;4.65;3.00;;;3.90;99.90;;;;;;4956431;28;20078;-62
2023/01/02 03:35:24;;;;;;;6.20;3.70;;;3.90;99.90;;;;;;4953428;28;20083;-65
2023/01/02 03:37:55;;;;;;;7.57;4.32;;;3.90;99.90;;;;;;4952888;28;20050;-64
2023/01/02 03:40:26;;;;;;;5.15;4.47;;;4.00;99.90;;;;;;4949863;28;20142;-64
2023/01/02 03:43:05;;;;;;;6.95;3.90;;;4.00;99.90;;;;;;4948681;28;20039;-62
2023/01/02 03:45:37;;;;;;;9.95;3.95;;;4.00;99.90;;;;;;4949784;28;20392;-63
2023/01/02 03:48:32;;;;;;;7.15;4.00;;;4.00;99.90;;;;;;4952970;28;20134;-63
2023/01/02 03:51:02;;;;;;;7.32;3.63;;;4.00;99.90;;;;;;4950736;28;20050;-64
2023/01/02 03:53:32;;;;;;;9.38;3.83;;;4.00;99.90;;;;;;4950640;28;20513;-62
2023/01/02 03:56:06;;;;;;;7.20;4.35;;;4.00;99.90;;;;;;4952798;28;20039;-65
2023/01/02 03:59:11;;;;;;;10.13;4.95;;;4.10;99.90;;;;;;4948097;28;20134;-63
2023/01/02 04:01:57;;;;;;;8.20;4.10;;;4.00;99.90;;;;;;4891706;29;20500;-66
2023/01/02 04:04:33;;;;;;;10.13;5.60;;;4.10;99.90;;;;;;4956382;28;20386;-62
2023/01/02 04:07:03;;;;;;;8.88;4.85;;;4.20;99.90;;;;;;4956732;28;20043;-63
2023/01/02 04:09:32;;;;;;;;;;;4.10;99.90;;;;;;4953065;28;20062;-62
2023/01/02 04:12:03;;;;;;;7.30;6.25;;;4.20;99.90;;;;;;4955739;28;19944;-63
2023/01/02 04:14:39;;;;;;;9.35;4.72;;;4.20;99.90;;;;;;4954791;28;20065;-63
2023/01/02 04:17:07;;;;;;;9.63;4.68;;;4.20;99.90;;;;;;4947859;28;20053;-66
2023/01/02 04:20:14;;;;;;;9.23;5.07;;;4.20;99.90;;;;;;4950017;28;20514;-63
2023/01/02 04:22:49;;;;;;;10.23;4.68;;;4.20;99.90;;;;;;4865311;29;20136;-63
2023/01/02 04:25:17;;;;;;;6.97;4.13;;;4.20;99.90;;;;;;4868479;29;20049;-63
2023/01/02 04:27:47;;;;;;;10.23;4.78;;;4.30;99.90;;;;;;4910196;28;20052;-62
2023/01/02 04:30:14;;;;;;;8.57;5.15;;;4.30;99.90;;;;;;4947674;28;20047;-64
2023/01/02 04:32:44;;;;;;;11.13;5.57;;;4.30;99.90;;;;;;4954893;28;20055;-63
2023/01/02 04:35:15;;;;;;;7.57;5.50;;;4.30;99.90;;;;;;4954504;28;20125;-64
2023/01/02 04:37:43;;;;;;;7.57;4.40;;;4.30;99.90;;;;;;4948326;28;20451;-64
2023/01/02 04:40:13;;;;;;;8.95;5.60;;;4.30;99.90;;;;;;4946957;28;20055;-63
2023/01/02 04:42:43;;;;;;;12.45;4.93;;;4.30;99.90;;;;;;4954366;28;20047;-63
2023/01/02 04:45:11;;;;;;;10.38;5.38;;;4.20;99.90;;;;;;4949236;28;20058;-63
2023/01/02 04:47:38;;;;;;;13.30;5.28;;;4.30;99.90;;;;;;4950347;28;20043;-63
2023/01/02 04:50:06;;;;;;;9.88;5.13;;;4.30;99.90;;;;;;4952278;28;20047;-63
2023/01/02 04:52:33;;;;;;;11.80;5.07;;;4.30;99.90;;;;;;4947260;28;20049;-63
2023/01/02 04:55:07;;;;;;;8.88;5.55;;;4.30;99.90;;;;;;4952913;28;20424;-63
2023/01/02 04:57:35;;;;;;;11.10;4.80;;;4.30;99.90;;;;;;4957357;28;20047;-64
2023/01/02 05:00:04;;;;;;;10.25;4.85;;;4.30;99.90;;;;;;4949600;28;20057;-65
2023/01/02 05:02:35;;;;;;;12.73;5.72;;;4.40;99.90;;;;;;4951962;28;20187;-63
2023/01/02 05:05:03;;;;;;;10.90;5.88;;;4.40;99.90;;;;;;4948360;28;20130;-64
2023/01/02 05:07:31;;;;;;;14.10;6.00;;;4.40;99.90;;;;;;4954272;28;20513;-62
2023/01/02 05:09:58;;;;;;;12.98;6.07;;;4.40;99.90;;;;;;4949699;28;20062;-67
2023/01/02 05:12:25;;;;;;;16.63;4.80;;;4.50;99.90;;;;;;4943935;28;20132;-63
2023/01/02 05:14:51;;;;;;;12.57;5.72;;;4.50;99.90;;;;;;4953542;28;20055;-63
2023/01/02 05:17:18;;;;;;;16.70;5.93;;;4.50;99.90;;;;;;4956331;28;20408;-63
2023/01/02 05:19:45;;;;;;;16.10;7.00;;;4.50;99.90;;;;;;4950934;28;20126;-63
2023/01/02 05:24:57;;;;;;;17.10;5.93;;;4.50;99.90;;;;;;4951512;28;20090;-63
2023/01/02 05:27:24;;;;;;;15.20;5.93;;;4.60;99.90;;;;;;4951063;28;20047;-65
2023/01/02 05:29:51;;;;;;;13.05;5.82;;;4.60;99.90;;;;;;4955454;28;20401;-63
2023/01/02 05:32:18;;;;;;;14.95;6.55;;;4.60;99.90;;;;;;4959006;28;20047;-63
2023/01/02 05:34:45;;;;;;;12.38;5.88;;;4.60;99.90;;;;;;4963041;28;20043;-63
2023/01/02 05:37:12;;;;;;;14.50;5.70;;;4.60;99.90;;;;;;4958126;28;20058;-62
2023/01/02 05:39:39;;;;;;;20.30;6.63;;;4.60;99.90;;;;;;4961888;28;20097;-64
2023/01/02 05:42:05;;;;;;;18.48;6.38;;;4.60;99.90;;;;;;4957618;28;20130;-62
2023/01/02 05:44:32;;;;;;;20.20;6.05;;;4.60;99.90;;;;;;4950954;28;20047;-63
2023/01/02 05:46:59;;;;;;;16.20;6.88;;;4.70;99.90;;;;;;4959953;28;20046;-65
2023/01/02 05:49:26;;;;;;;15.05;6.60;;;4.70;99.90;;;;;;4956812;28;20046;-63
2023/01/02 05:51:53;;;;;;;17.38;7.78;;;4.70;99.90;;;;;;4959848;28;20050;-62
2023/01/02 05:54:19;;;;;;;20.52;7.13;;;4.70;99.90;;;;;;4959673;28;20136;-64
2023/01/02 05:56:46;;;;;;;11.85;6.68;;;4.70;99.90;;;;;;4963533;28;20047;-63
2023/01/02 05:59:14;;;;;;;23.35;8.75;;;4.80;99.90;;;;;;4958306;28;20042;-62
2023/01/02 06:01:41;;;;;;;25.70;7.15;;;4.80;99.90;;;;;;4958406;28;20059;-62
2023/01/02 06:04:09;;;;;;;18.40;7.22;;;4.80;99.90;;;;;;4950928;28;20046;-63
2023/01/02 06:06:43;;;;;;;18.27;8.00;;;4.80;99.90;;;;;;4955553;28;20055;-63
2023/01/02 06:09:12;;;;;;;17.70;6.97;;;4.80;99.90;;;;;;4959676;28;20063;-64
2023/01/02 06:11:39;;;;;;;30.73;8.68;;;4.80;99.90;;;;;;4958350;28;20077;-63
2023/01/02 06:14:07;;;;;;;32.17;7.90;;;4.80;99.90;;;;;;4950143;28;20130;-64
2023/01/02 06:16:35;;;;;;;30.88;6.95;;;4.90;99.90;;;;;;4961758;28;20046;-63
2023/01/02 06:19:02;;;;;;;23.15;8.60;;;4.90;99.90;;;;;;4952090;28;20070;-64
2023/01/02 06:21:29;;;;;;;22.33;7.07;;;4.90;99.90;;;;;;4956018;28;20051;-63
2023/01/02 06:23:57;;;;;;;24.17;7.97;;;5.00;99.90;;;;;;4952833;28;20177;-65
2023/01/02 06:26:27;;;;;;;25.52;8.15;;;5.00;99.90;;;;;;4956378;28;20073;-63
2023/01/02 06:29:00;;;;;;;24.15;7.72;;;5.00;99.90;;;;;;4952070;28;20046;-63
2023/01/02 06:31:28;;;;;;;23.08;7.78;;;5.10;99.90;;;;;;4955094;28;20090;-63
2023/01/02 06:34:00;;;;;;;27.08;7.38;;;5.00;99.90;;;;;;4954491;28;20777;-64
2023/01/02 06:36:32;;;;;;;24.40;8.55;;;5.00;99.90;;;;;;4956294;28;20298;-64
2023/01/02 06:38:59;;;;;;;29.67;10.15;;;5.10;99.90;;;;;;4957405;28;20066;-63
2023/01/02 06:41:26;;;;;;;24.92;8.45;;;5.10;99.90;;;;;;4953652;28;20189;-62
2023/01/02 06:43:53;;;;;;;32.25;9.55;;;5.10;99.90;;;;;;4954993;28;20053;-65
2023/01/02 06:46:22;;;;;;;33.13;7.93;;;5.10;99.90;;;;;;4951094;28;20047;-65
2023/01/02 06:48:49;;;;;;;20.75;7.00;;;5.20;99.90;;;;;;4951932;28;20043;-65
2023/01/02 06:51:21;;;;;;;24.75;8.85;;;5.10;99.90;;;;;;4955172;28;20042;-62
2023/01/02 06:53:49;;;;;;;22.02;8.18;;;5.10;99.90;;;;;;4954049;28;20075;-63
2023/01/02 06:56:18;;;;;;;21.95;9.05;;;5.10;99.90;;;;;;4948428;28;20532;-62
2023/01/02 06:58:45;;;;;;;28.95;8.30;;;5.10;99.90;;;;;;4952599;28;20047;-66
2023/01/02 07:01:15;;;;;;;23.85;7.93;;;5.20;99.90;;;;;;4955338;28;20090;-63
2023/01/02 07:03:42;;;;;;;25.67;8.50;;;5.20;99.90;;;;;;4954934;28;20051;-64
2023/01/02 07:06:12;;;;;;;23.20;6.55;;;5.20;99.90;;;;;;4949786;28;20101;-62
2023/01/02 07:08:41;;;;;;;35.05;9.50;;;5.20;99.90;;;;;;4956386;28;20047;-62
2023/01/02 07:11:20;;;;;;;29.73;8.55;;;5.20;99.90;;;;;;4951853;28;20442;-62
2023/01/02 07:13:50;;;;;;;28.38;9.00;;;5.20;99.90;;;;;;4955678;28;20047;-67
2023/01/02 07:16:18;;;;;;;38.17;13.03;;;5.20;99.90;;;;;;4954171;28;20153;-63
2023/01/02 07:18:45;;;;;;;27.42;7.10;;;5.20;99.90;;;;;;4954878;28;20051;-63
2023/01/02 07:21:15;;;;;;;21.35;6.70;;;5.20;99.90;;;;;;4946160;28;20454;-63
2023/01/02 07:23:41;;;;;;;32.63;10.70;;;5.20;99.90;;;;;;4956190;28;20051;-63
2023/01/02 07:26:09;;;;;;;28.58;10.38;;;5.30;99.90;;;;;;4951953;28;20065;-64
2023/01/02 07:28:37;;;;;;;26.63;8.13;;;5.30;99.90;;;;;;4951054;28;20556;-62
2023/01/02 07:31:06;;;;;;;18.35;7.32;;;5.20;99.90;;;;;;4955163;28;20113;-63
2023/01/02 07:33:34;;;;;;;33.10;8.30;;;5.30;99.90;;;;;;4957442;28;20505;-63
2023/01/02 07:36:04;;;;;;;23.58;7.80;;;5.30;99.90;;;;;;4954730;28;20042;-63
2023/01/02 07:38:31;;;;;;;27.83;7.63;;;5.30;99.90;;;;;;4955763;28;20098;-63
2023/01/02 07:40:57;;;;;;;26.25;8.18;;;5.30;99.90;;;;;;4957258;28;20130;-64
2023/01/02 07:43:25;;;;;;;33.95;8.80;;;5.30;99.90;;;;;;4952321;28;20065;-64
2023/01/02 07:45:51;;;;;;;24.45;8.52;;;5.30;99.90;;;;;;4950253;28;20042;-63
2023/01/02 07:48:18;;;;;;;33.13;9.23;;;5.20;99.90;;;;;;4950681;28;20054;-62
2023/01/02 07:50:46;;;;;;;34.90;8.10;;;5.30;99.90;;;;;;4951275;28;20054;-63
2023/01/02 07:53:13;;;;;;;34.40;8.13;;;5.20;99.90;;;;;;4956494;28;20200;-62
2023/01/02 07:55:39;;;;;;;25.50;8.10;;;5.30;99.90;;;;;;4951653;28;20055;-62
2023/01/02 07:58:06;;;;;;;24.10;7.28;;;5.30;99.90;;;;;;4950924;28;20134;-63
2023/01/02 08:00:33;;;;;;;20.33;8.65;;;5.30;99.90;;;;;;4949390;28;20405;-63
2023/01/02 08:03:00;;;;;;;28.17;9.32;;;5.30;99.90;;;;;;4956254;28;20038;-64
2023/01/02 08:05:27;;;;;;;24.10;8.38;;;5.30;99.90;;;;;;4953798;28;20070;-63
2023/01/02 08:07:54;;;;;;;21.95;7.90;;;5.30;99.90;;;;;;4952274;28;20048;-63
2023/01/02 08:10:21;;;;;;;24.20;7.70;;;5.30;99.90;;;;;;4956305;28;20537;-64
2023/01/02 08:12:48;;;;;;;31.13;8.70;;;5.30;99.90;;;;;;4957568;28;20079;-63
2023/01/02 08:15:15;;;;;;;26.73;8.07;;;5.40;99.90;;;;;;4956579;28;20521;-64
2023/01/02 08:17:42;;;;;;;31.58;10.10;;;5.40;99.90;;;;;;4959571;28;20069;-64
2023/01/02 08:20:10;;;;;;;21.50;7.30;;;5.40;99.90;;;;;;4956550;28;20505;-65
2023/01/02 08:22:37;;;;;;;32.50;7.88;;;5.40;99.90;;;;;;4951941;28;20145;-62
2023/01/02 08:25:04;;;;;;;21.08;9.07;;;5.40;99.90;;;;;;4961084;28;20550;-64
2023/01/02 08:27:31;;;;;;;26.40;9.48;;;5.40;99.90;;;;;;4953338;28;20324;-63
2023/01/02 08:29:58;;;;;;;35.28;11.30;;;5.50;99.90;;;;;;4952498;28;20047;-65
2023/01/02 08:32:25;;;;;;;25.27;9.15;;;5.50;99.90;;;;;;4957009;28;20070;-62
2023/01/02 08:34:52;;;;;;;31.77;8.52;;;5.50;99.90;;;;;;4954871;28;20073;-63
2023/01/02 08:37:19;;;;;;;31.60;9.10;;;5.60;99.90;;;;;;4956910;28;20429;-63
2023/01/02 08:39:46;;;;;;;27.17;9.48;;;5.60;99.90;;;;;;4956753;28;20130;-63
2023/01/02 08:42:13;;;;;;;21.73;8.13;;;5.60;99.90;;;;;;4956561;28;20192;-63
2023/01/02 08:44:42;;;;;;;30.40;11.27;;;5.70;99.90;;;;;;4957583;28;20067;-63
2023/01/02 08:47:09;;;;;;;29.63;10.70;;;5.70;99.90;;;;;;4956893;28;20069;-62
2023/01/02 08:49:35;;;;;;;35.03;11.27;;;5.70;99.90;;;;;;4959038;28;20057;-63
2023/01/02 08:52:03;;;;;;;29.13;9.45;;;5.80;99.90;;;;;;4950690;28;20079;-64
2023/01/02 08:54:30;;;;;;;23.10;10.07;;;5.80;99.90;;;;;;4953513;28;20051;-65
2023/01/02 08:56:56;;;;;;;22.25;10.18;;;5.80;99.90;;;;;;4961623;28;20469;-64
2023/01/02 08:59:24;;;;;;;23.92;8.27;;;5.80;99.90;;;;;;4954762;28;20079;-62
2023/01/02 09:01:52;;;;;;;20.48;9.00;;;5.80;99.90;;;;;;4955446;28;20066;-65
2023/01/02 09:04:19;;;;;;;24.90;10.35;;;5.90;99.90;;;;;;4955849;28;20047;-63
2023/01/02 09:06:47;;;;;;;36.72;12.77;;;5.90;99.90;;;;;;4955856;28;20113;-63
2023/01/02 09:09:15;;;;;;;28.67;10.93;;;5.90;99.90;;;;;;4955815;28;20058;-63
2023/01/02 09:11:45;;;;;;;31.73;9.95;;;5.90;99.90;;;;;;4953185;28;20145;-64
2023/01/02 09:14:12;;;;;;;22.25;11.13;;;6.00;99.90;;;;;;4957418;28;20055;-63
2023/01/02 09:16:39;;;;;;;20.70;11.10;;;6.00;99.90;;;;;;4955556;28;20057;-63
2023/01/02 09:19:06;;;;;;;28.52;10.63;;;6.00;99.90;;;;;;4956240;28;20504;-63
2023/01/02 09:21:33;;;;;;;31.50;11.82;;;6.00;99.90;;;;;;4952294;28;20142;-64
2023/01/02 09:24:00;;;;;;;29.33;11.70;;;6.10;99.90;;;;;;4949197;28;20047;-63
2023/01/02 09:26:27;;;;;;;29.05;11.57;;;6.10;99.90;;;;;;4950648;28;20055;-65
2023/01/02 09:28:54;;;;;;;28.73;9.95;;;6.10;99.90;;;;;;4958680;28;20039;-65
2023/01/02 09:31:22;;;;;;;19.80;10.05;;;6.10;99.90;;;;;;4953703;28;20493;-64
2023/01/02 09:33:49;;;;;;;27.27;12.30;;;6.10;99.90;;;;;;4945817;28;20055;-62
2023/01/02 09:36:18;;;;;;;39.00;12.27;;;6.20;99.90;;;;;;4957200;28;20038;-65
2023/01/02 09:38:50;;;;;;;29.30;9.60;;;6.20;99.90;;;;;;4958250;28;20043;-63
2023/01/02 09:41:20;;;;;;;18.73;8.02;;;6.20;99.90;;;;;;4953068;28;20145;-63
2023/01/02 09:44:10;;;;;;;21.17;9.07;;;6.20;99.90;;;;;;4955583;28;20078;-63
2023/01/02 09:46:44;;;;;;;29.40;8.38;;;6.20;99.90;;;;;;4953923;28;20055;-63
2023/01/02 09:49:15;;;;;;;21.58;7.45;;;6.20;99.90;;;;;;4951406;28;20058;-63
2023/01/02 09:51:43;;;;;;;17.98;7.97;;;6.20;99.90;;;;;;4952359;28;20138;-63
2023/01/02 09:54:20;;;;;;;19.13;8.15;;;6.20;99.90;;;;;;4957260;28;20049;-62
2023/01/02 09:56:53;;;;;;;21.73;7.80;;;6.20;99.90;;;;;;4954407;28;20417;-64
2023/01/02 09:59:40;;;;;;;21.58;7.93;;;6.20;99.90;;;;;;4948224;28;20061;-63
2023/01/02 10:02:28;;;;;;;17.65;7.15;;;6.30;99.90;;;;;;4951396;28;20154;-63
2023/01/02 10:05:23;;;;;;;21.13;8.48;;;6.30;99.90;;;;;;4952685;28;20142;-62
2023/01/02 10:08:04;;;;;;;25.55;8.38;;;6.30;99.90;;;;;;4953082;28;20086;-63
2023/01/02 10:10:39;;;;;;;18.17;7.40;;;6.40;99.90;;;;;;4956297;28;20051;-63
2023/01/02 10:13:29;;;;;;;20.52;8.68;;;6.40;99.90;;;;;;4956577;28;20054;-63
2023/01/02 10:16:20;;;;;;;31.83;9.90;;;6.40;99.90;;;;;;4955813;28;20461;-66
2023/01/02 10:18:51;;;;;;;21.42;7.78;;;6.50;99.90;;;;;;4951471;28;20059;-66
2023/01/02 10:21:26;;;;;;;;;;;6.50;99.90;;;;;;4960555;28;20075;-63
2023/01/02 10:23:59;;;;;;;29.65;9.45;;;6.50;99.90;;;;;;4962115;28;19926;-65
2023/01/02 10:26:36;;;;;;;21.05;8.95;;;6.50;99.90;;;;;;4958288;28;20130;-64
2023/01/02 10:29:18;;;;;;;22.20;8.63;;;6.60;99.90;;;;;;4958383;28;20065;-63
2023/01/02 10:32:03;;;;;;;21.02;7.68;;;6.60;99.90;;;;;;4956772;28;20046;-64
2023/01/02 10:34:49;;;;;;;31.65;8.07;;;6.60;99.90;;;;;;4956326;28;20050;-63
2023/01/02 10:37:16;;;;;;;32.33;9.18;;;6.60;99.90;;;;;;4959205;28;20082;-62
2023/01/02 10:39:47;;;;;;;18.40;5.55;;;6.60;99.90;;;;;;4953977;28;20390;-65
2023/01/02 10:42:15;;;;;;;23.88;7.82;;;6.60;99.90;;;;;;4957756;28;21584;-63
2023/01/02 10:44:44;;;;;;;23.90;9.48;;;6.70;99.90;;;;;;4958232;28;20403;-64
2023/01/02 10:47:20;;;;;;;15.73;5.10;;;6.70;99.90;;;;;;4958970;28;20059;-67
2023/01/02 10:49:48;;;;;;;22.83;7.07;;;6.70;99.90;;;;;;4957291;28;20125;-64
2023/01/02 10:52:28;;;;;;;22.40;6.43;;;6.70;99.90;;;;;;4955473;28;20047;-63
2023/01/02 10:54:57;;;;;;;26.30;9.23;;;6.70;99.90;;;;;;4950421;28;20081;-63
2023/01/02 10:57:44;;;;;;;23.30;8.63;;;6.70;99.90;;;;;;4952359;28;20055;-63
2023/01/02 11:00:19;;;;;;;22.20;7.30;;;6.70;99.90;;;;;;4959384;28;20055;-63
2023/01/02 11:02:56;;;;;;;18.00;7.15;;;6.70;99.90;;;;;;4956710;28;20043;-66
2023/01/02 11:05:27;;;;;;;26.92;8.65;;;6.70;99.90;;;;;;4953183;28;20070;-64
2023/01/02 11:07:54;;;;;;;7.38;5.78;;;6.70;99.90;;;;;;4954898;28;20125;-64
2023/01/02 11:10:23;;;;;;;12.80;7.22;;;6.70;99.90;;;;;;4955644;28;20113;-66
2023/01/02 11:12:50;;;;;;;14.23;7.88;;;6.70;99.90;;;;;;4961450;28;20054;-62
2023/01/02 11:15:24;;;;;;;17.73;7.07;;;6.70;99.90;;;;;;4957433;28;20055;-65
2023/01/02 11:17:52;;;;;;;18.85;7.03;;;6.70;99.90;;;;;;4962871;28;20137;-67
2023/01/02 11:20:30;;;;;;;16.33;6.63;;;6.70;99.90;;;;;;4953930;28;20052;-63
2023/01/02 11:23:00;;;;;;;11.82;6.50;;;6.70;99.90;;;;;;4958609;28;20042;-65
2023/01/02 11:25:32;;;;;;;12.70;8.38;;;6.70;99.90;;;;;;4957296;28;20117;-63
2023/01/02 11:28:00;;;;;;;18.35;8.02;;;6.70;99.90;;;;;;4949902;28;20047;-63
2023/01/02 11:30:29;;;;;;;16.83;7.90;;;6.70;99.90;;;;;;4957927;28;20055;-62
2023/01/02 11:33:23;;;;;;;13.75;7.43;;;6.70;99.90;;;;;;4959650;28;20047;-65
2023/01/02 11:36:11;;;;;;;13.27;7.72;;;6.70;99.90;;;;;;4957966;28;20042;-63
2023/01/02 11:38:43;;;;;;;18.17;8.57;;;6.70;99.90;;;;;;4958822;28;20126;-64
2023/01/02 11:43:47;;;;;;;14.48;7.47;;;6.70;99.90;;;;;;4955826;28;20058;-63
2023/01/02 11:44:22;;;;;;;18.60;7.35;;;6.70;99.90;;;;;;4953623;28;20054;-63
2023/01/02 11:46:51;;;;;;;12.75;6.72;;;6.70;99.90;;;;;;4958664;28;20054;-62
2023/01/02 11:49:38;;;;;;;13.57;6.70;;;6.70;99.90;;;;;;4952074;28;20055;-63
2023/01/02 11:52:08;;;;;;;15.10;8.10;;;6.70;99.90;;;;;;4950091;28;20055;-62
2023/01/02 11:54:57;;;;;;;10.73;6.88;;;6.70;99.90;;;;;;4957805;28;20042;-63
2023/01/02 11:57:37;;;;;;;12.00;6.60;;;6.70;99.90;;;;;;4957893;28;20521;-64
2023/01/02 12:00:11;;;;;;;14.15;7.55;;;6.70;99.90;;;;;;4954621;28;20054;-64
2023/01/02 12:02:44;;;;;;;14.45;7.32;;;6.70;99.90;;;;;;4954814;28;20568;-67
2023/01/02 12:05:22;;;;;;;12.40;7.22;;;6.70;99.90;;;;;;4954016;28;20045;-63
2023/01/02 12:08:00;;;;;;;11.65;6.05;;;6.70;99.90;;;;;;4954987;28;20051;-64
2023/01/02 12:10:58;;;;;;;9.10;6.50;;;6.70;99.90;;;;;;4952773;28;20051;-63
2023/01/02 12:13:59;;;;;;;9.82;5.43;;;6.70;99.90;;;;;;4948829;28;20187;-64
2023/01/02 12:16:42;;;;;;;;;;;6.70;99.90;;;;;;4947403;28;20057;-63
2023/01/02 12:19:27;;;;;;;13.52;5.32;;;6.70;99.90;;;;;;4953632;28;19930;-64
2023/01/02 12:22:14;;;;;;;9.15;5.13;;;6.70;99.90;;;;;;4946049;28;20067;-66
2023/01/02 12:25:07;;;;;;;7.95;4.93;;;6.60;99.90;;;;;;4954384;28;20563;-64
2023/01/02 12:27:57;;;;;;;6.70;4.47;;;6.60;99.90;;;;;;4926586;28;20130;-66
2023/01/02 12:30:24;;;;;;;6.50;4.13;;;6.60;99.90;;;;;;4952215;28;20079;-64
2023/01/02 12:33:31;;;;;;;8.43;5.50;;;6.60;99.90;;;;;;4950742;28;20142;-64
2023/01/02 12:36:01;;;;;;;8.13;4.43;;;6.60;99.90;;;;;;4950697;28;20481;-64
2023/01/02 12:38:44;;;;;;;8.07;4.28;;;6.60;99.90;;;;;;4949641;28;20089;-64
2023/01/02 12:41:30;;;;;;;7.60;5.20;;;6.50;99.90;;;;;;4955999;28;20474;-63
2023/01/02 12:44:06;;;;;;;10.82;5.05;;;6.60;99.90;;;;;;4954040;28;20109;-64
2023/01/02 12:46:57;;;;;;;7.15;4.57;;;6.50;99.90;;;;;;4954330;28;20047;-63
2023/01/02 12:49:56;;;;;;;8.02;4.70;;;6.50;99.90;;;;;;4951467;28;20047;-65
2023/01/02 12:52:45;;;;;;;7.43;5.57;;;6.50;99.90;;;;;;4953093;28;20034;-63
2023/01/02 12:55:38;;;;;;;11.90;6.95;;;6.50;99.90;;;;;;4948120;28;20521;-64
2023/01/02 12:58:08;;;;;;;10.85;6.18;;;6.50;99.90;;;;;;4945722;28;20047;-66
2023/01/02 13:01:28;;;;;;;9.43;5.93;;;6.40;99.90;;;;;;4948259;28;20051;-64
2023/01/02 13:04:11;;;;;;;8.32;5.93;;;6.40;99.90;;;;;;4868672;29;20661;-66
2023/01/02 13:07:13;;;;;;;6.93;5.97;;;6.40;99.90;;;;;;4948852;28;20129;-64
2023/01/02 13:09:42;;;;;;;5.72;5.13;;;6.40;99.90;;;;;;4946705;28;20142;-66
2023/01/02 13:12:14;;;;;;;12.77;6.75;;;6.40;99.90;;;;;;4948132;28;20058;-64
2023/01/02 13:15:05;;;;;;;8.25;7.20;;;6.30;99.90;;;;;;4954296;28;20054;-64
2023/01/02 13:17:57;;;;;;;11.80;7.57;;;6.40;99.90;;;;;;4944585;28;20425;-66
2023/01/02 13:20:42;;;;;;;12.35;6.47;;;6.30;99.90;;;;;;4948877;28;20139;-65
2023/01/02 13:23:30;;;;;;;10.30;7.90;;;6.30;99.90;;;;;;4945654;28;20173;-64